createdAt,value
2022-08-27T00:02:20.496Z,1.27
2022-08-27T00:04:48.547Z,1.00
2022-08-27T00:07:20.104Z,1.40
2022-08-27T00:09:48.695Z,1.93
2022-08-27T00:12:18.236Z,1.05
2022-08-27T00:14:50.050Z,1.23
2022-08-27T00:17:17.900Z,1.00
2022-08-27T00:19:44.435Z,1.10
2022-08-27T00:22:12.552Z,1.00
2022-08-27T00:24:53.353Z,1.05
2022-08-27T00:27:21.961Z,0.90
2022-08-27T00:29:48.785Z,1.05
2022-08-27T00:32:16.218Z,1.08
2022-08-27T00:34:42.706Z,0.93
2022-08-27T00:37:17.172Z,1.25
2022-08-27T00:39:43.692Z,1.17
2022-08-27T00:42:10.373Z,1.42
2022-08-27T00:44:42.872Z,1.75
2022-08-27T00:47:23.011Z,0.63
2022-08-27T00:49:54.571Z,0.88
2022-08-27T00:52:26.183Z,1.20
2022-08-27T00:55:35.781Z,1.33
2022-08-27T00:58:12.500Z,1.17
2022-08-27T01:00:50.456Z,1.30
2022-08-27T01:03:17.403Z,1.70
2022-08-27T01:05:46.784Z,1.33
2022-08-27T01:08:17.479Z,1.33
2022-08-27T01:10:55.623Z,0.90
2022-08-27T01:13:59.056Z,0.83
2022-08-27T01:16:25.066Z,1.23
2022-08-27T01:19:11.009Z,1.45
2022-08-27T01:22:19.121Z,1.30
2022-08-27T01:25:14.779Z,1.38
2022-08-27T01:27:43.632Z,1.10
2022-08-27T01:30:20.664Z,1.30
2022-08-27T01:32:48.046Z,1.13
2022-08-27T01:35:17.272Z,1.35
2022-08-27T01:37:52.441Z,1.33
2022-08-27T01:40:20.409Z,1.03
2022-08-27T01:42:54.530Z,1.08
2022-08-27T01:45:32.055Z,1.60
2022-08-27T01:48:00.135Z,1.27
2022-08-27T01:50:31.856Z,1.48
2022-08-27T01:53:15.513Z,1.33
2022-08-27T01:55:52.464Z,1.40
2022-08-27T01:58:22.464Z,1.40
2022-08-27T02:00:56.039Z,1.35
2022-08-27T02:03:25.488Z,1.52
2022-08-27T02:05:52.364Z,1.30
2022-08-27T02:08:19.513Z,1.33
2022-08-27T02:10:49.073Z,1.30
2022-08-27T02:13:16.993Z,1.25
2022-08-27T02:15:44.540Z,1.60
2022-08-27T02:18:17.463Z,1.40
2022-08-27T02:20:49.720Z,1.15
2022-08-27T02:23:24.368Z,1.55
2022-08-27T02:25:51.196Z,1.30
2022-08-27T02:28:20.897Z,1.73
2022-08-27T02:30:47.442Z,1.40
2022-08-27T02:33:17.007Z,1.52
2022-08-27T02:35:48.516Z,1.30
2022-08-27T02:38:17.019Z,1.15
2022-08-27T02:40:53.993Z,1.67
2022-08-27T02:43:23.623Z,0.97
2022-08-27T02:45:51.987Z,1.50
2022-08-27T02:48:18.475Z,1.40
2022-08-27T02:51:07.259Z,1.00
2022-08-27T02:53:39.756Z,1.40
2022-08-27T02:56:07.696Z,1.27
2022-08-27T02:58:34.394Z,1.35
2022-08-27T03:01:02.331Z,1.33
2022-08-27T03:03:29.878Z,1.10
2022-08-27T03:05:58.687Z,1.50
2022-08-27T03:08:29.114Z,1.13
2022-08-27T03:10:59.021Z,1.25
2022-08-27T03:13:28.098Z,1.50
2022-08-27T03:15:54.629Z,1.17
2022-08-27T03:18:22.204Z,1.60
2022-08-27T03:20:54.194Z,1.13
2022-08-27T03:23:25.152Z,1.13
2022-08-27T03:25:58.871Z,1.50
2022-08-27T03:28:29.458Z,1.45
2022-08-27T03:31:00.491Z,1.30
2022-08-27T03:33:34.654Z,1.00
2022-08-27T03:36:01.500Z,1.45
2022-08-27T03:38:32.104Z,2.28
2022-08-27T03:41:16.112Z,1.52
2022-08-27T03:43:42.709Z,1.30
2022-08-27T03:46:17.303Z,1.20
2022-08-27T03:48:43.758Z,1.10
2022-08-27T03:51:15.911Z,1.65
2022-08-27T03:53:44.944Z,1.60
2022-08-27T03:56:26.754Z,1.23
2022-08-27T03:58:58.366Z,1.23
2022-08-27T04:01:30.727Z,1.40
2022-08-27T04:04:04.526Z,1.55
2022-08-27T04:06:31.014Z,1.58
2022-08-27T04:09:11.790Z,1.67
2022-08-27T04:11:38.228Z,1.40
2022-08-27T04:14:12.464Z,1.90
2022-08-27T04:17:03.322Z,1.60
2022-08-27T04:19:46.908Z,1.20
2022-08-27T04:22:23.691Z,2.00
2022-08-27T04:24:58.839Z,1.60
2022-08-27T04:27:36.999Z,1.38
2022-08-27T04:30:09.352Z,1.50
2022-08-27T04:32:36.679Z,1.40
2022-08-27T04:35:03.471Z,1.40
2022-08-27T04:37:33.028Z,1.60
2022-08-27T04:39:59.917Z,1.50
2022-08-27T04:42:32.740Z,1.40
2022-08-27T04:44:59.175Z,1.75
2022-08-27T04:47:38.710Z,1.60
2022-08-27T04:50:06.932Z,1.30
2022-08-27T04:52:40.952Z,1.60
2022-08-27T04:55:09.640Z,1.60
2022-08-27T04:57:38.073Z,1.40
2022-08-27T05:00:05.027Z,1.88
2022-08-27T05:02:35.606Z,1.70
2022-08-27T05:05:02.152Z,1.63
2022-08-27T05:07:57.607Z,1.80
2022-08-27T05:10:30.188Z,1.40
2022-08-27T05:12:59.965Z,1.45
2022-08-27T05:15:26.852Z,1.60
2022-08-27T05:17:55.304Z,1.40
2022-08-27T05:20:24.138Z,1.27
2022-08-27T05:22:56.015Z,1.45
2022-08-27T05:25:27.203Z,1.75
2022-08-27T05:27:55.893Z,1.77
2022-08-27T05:30:44.254Z,1.30
2022-08-27T05:33:19.975Z,1.73
2022-08-27T05:35:55.244Z,2.63
2022-08-27T05:38:33.977Z,1.50
2022-08-27T05:41:09.324Z,1.60
2022-08-27T05:44:01.258Z,1.35
2022-08-27T05:46:29.108Z,1.95
2022-08-27T05:48:58.261Z,1.73
2022-08-27T05:51:36.219Z,1.48
2022-08-27T05:54:18.899Z,1.50
2022-08-27T05:56:46.206Z,1.75
2022-08-27T05:59:42.599Z,2.00
2022-08-27T06:02:09.151Z,1.85
2022-08-27T06:04:45.964Z,1.95
2022-08-27T06:07:13.000Z,2.20
2022-08-27T06:09:40.005Z,2.30
2022-08-27T06:12:17.319Z,2.20
2022-08-27T06:15:03.070Z,2.10
2022-08-27T06:17:29.565Z,2.22
2022-08-27T06:20:15.446Z,1.67
2022-08-27T06:22:41.895Z,1.77
2022-08-27T06:25:09.551Z,1.88
2022-08-27T06:28:07.969Z,1.80
2022-08-27T06:30:35.879Z,2.03
2022-08-27T06:33:02.328Z,1.87
2022-08-27T06:35:35.215Z,1.80
2022-08-27T06:38:01.650Z,2.40
2022-08-27T06:40:28.135Z,1.85
2022-08-27T06:42:54.706Z,2.35
2022-08-27T06:45:21.150Z,1.40
2022-08-27T06:47:57.121Z,1.50
2022-08-27T06:50:28.730Z,2.00
2022-08-27T06:52:55.212Z,2.00
2022-08-27T06:55:24.711Z,2.17
2022-08-27T06:57:52.241Z,1.53
2022-08-27T07:00:19.240Z,1.80
2022-08-27T07:02:45.720Z,1.83
2022-08-27T07:05:12.440Z,1.80
2022-08-27T07:07:44.193Z,1.60
2022-08-27T07:10:13.328Z,2.10
2022-08-27T07:12:39.783Z,2.28
2022-08-27T07:15:08.763Z,1.88
2022-08-27T07:17:59.367Z,1.98
2022-08-27T07:20:27.269Z,1.88
2022-08-27T07:22:58.709Z,1.60
2022-08-27T07:25:26.231Z,1.40
2022-08-27T07:27:52.865Z,1.25
2022-08-27T07:30:19.496Z,1.02
2022-08-27T07:32:47.014Z,1.30
2022-08-27T07:35:13.671Z,0.87
2022-08-27T07:37:40.995Z,0.90
2022-08-27T07:40:13.583Z,1.00
2022-08-27T07:43:01.163Z,1.10
2022-08-27T07:45:29.029Z,1.00
2022-08-27T07:47:55.876Z,0.80
2022-08-27T07:50:23.587Z,0.85
2022-08-27T07:52:51.547Z,0.90
2022-08-27T07:55:18.983Z,0.90
2022-08-27T07:57:48.005Z,1.00
2022-08-27T08:00:15.003Z,1.40
2022-08-27T08:02:44.976Z,0.80
2022-08-27T08:05:12.603Z,0.73
2022-08-27T08:07:39.715Z,1.20
2022-08-27T08:10:08.719Z,0.82
2022-08-27T08:12:40.428Z,0.80
2022-08-27T08:15:09.646Z,0.73
2022-08-27T08:17:37.442Z,1.00
2022-08-27T08:20:21.712Z,1.13
2022-08-27T08:22:52.791Z,0.90
2022-08-27T08:25:19.743Z,0.70
2022-08-27T08:27:52.311Z,0.70
2022-08-27T08:30:18.799Z,0.93
2022-08-27T08:32:47.372Z,1.42
2022-08-27T08:35:20.881Z,1.10
2022-08-27T08:37:47.385Z,1.00
2022-08-27T08:40:30.721Z,0.80
2022-08-27T08:42:57.844Z,1.10
2022-08-27T08:45:38.377Z,1.05
2022-08-27T08:48:10.532Z,1.27
2022-08-27T08:51:01.123Z,0.90
2022-08-27T08:53:47.579Z,0.63
2022-08-27T08:56:28.650Z,1.00
2022-08-27T08:59:24.038Z,0.75
2022-08-27T09:01:51.786Z,1.33
2022-08-27T09:04:27.082Z,0.63
2022-08-27T09:07:17.790Z,1.00
2022-08-27T09:09:58.599Z,0.90
2022-08-27T09:12:32.479Z,1.10
2022-08-27T09:15:22.662Z,1.00
2022-08-27T09:17:50.317Z,1.03
2022-08-27T09:20:19.962Z,0.77
2022-08-27T09:23:00.004Z,0.90
2022-08-27T09:25:34.040Z,1.20
2022-08-27T09:28:27.828Z,0.82
2022-08-27T09:30:55.946Z,0.70
2022-08-27T09:33:22.495Z,1.10
2022-08-27T09:35:50.162Z,1.42
2022-08-27T09:38:31.782Z,1.00
2022-08-27T09:41:21.543Z,1.10
2022-08-27T09:44:00.893Z,0.97
2022-08-27T09:46:52.348Z,0.88
2022-08-27T09:49:19.879Z,1.25
2022-08-27T09:51:48.347Z,0.85
2022-08-27T09:54:41.953Z,1.35
2022-08-27T09:57:36.231Z,0.80
2022-08-27T10:00:08.036Z,0.80
2022-08-27T10:02:34.511Z,1.00
2022-08-27T10:05:26.566Z,1.10
2022-08-27T10:08:01.363Z,1.27
2022-08-27T10:10:40.969Z,0.80
2022-08-27T10:13:18.523Z,0.95
2022-08-27T10:16:15.979Z,0.85
2022-08-27T10:19:09.335Z,1.10
2022-08-27T10:22:00.654Z,1.20
2022-08-27T10:24:40.092Z,1.23
2022-08-27T10:27:40.947Z,0.75
2022-08-27T10:30:12.233Z,1.15
2022-08-27T10:32:46.784Z,0.68
2022-08-27T10:35:21.319Z,0.90
2022-08-27T10:38:43.849Z,0.83
2022-08-27T10:41:30.887Z,0.80
2022-08-27T10:44:38.075Z,1.13
2022-08-27T10:47:24.722Z,0.93
2022-08-27T10:49:57.253Z,0.90
2022-08-27T10:52:34.187Z,0.80
2022-08-27T10:55:07.189Z,0.68
2022-08-27T10:58:10.948Z,1.00
2022-08-27T11:00:59.516Z,0.60
2022-08-27T11:03:35.020Z,0.85
2022-08-27T11:06:27.060Z,0.90
2022-08-27T11:09:00.591Z,0.90
2022-08-27T11:15:00.580Z,1.00
2022-08-27T11:17:32.655Z,1.15
2022-08-27T11:20:14.158Z,0.80
2022-08-27T11:22:48.000Z,1.27
2022-08-27T11:25:30.988Z,0.80
2022-08-27T11:27:59.603Z,0.98
2022-08-27T11:30:45.557Z,1.10
2022-08-27T11:33:50.783Z,0.90
2022-08-27T11:36:23.191Z,0.80
2022-08-27T11:39:04.552Z,1.67
2022-08-27T11:41:45.301Z,0.77
2022-08-27T11:44:18.909Z,1.00
2022-08-27T11:46:48.994Z,1.30
2022-08-27T11:49:26.687Z,1.23
2022-08-27T11:51:58.314Z,1.20
2022-08-27T11:54:29.660Z,1.15
2022-08-27T11:56:56.108Z,1.20
2022-08-27T11:59:23.822Z,1.20
2022-08-27T12:01:54.926Z,1.00
2022-08-27T12:04:33.055Z,1.05
2022-08-27T12:07:25.119Z,0.98
2022-08-27T12:10:31.430Z,1.20
2022-08-27T12:13:31.997Z,1.03
2022-08-27T12:16:18.740Z,0.88
2022-08-27T12:19:02.275Z,0.88
2022-08-27T12:21:49.924Z,1.10
2022-08-27T12:24:48.647Z,0.93
2022-08-27T12:27:31.994Z,0.93
2022-08-27T12:30:00.181Z,1.10
2022-08-27T12:32:44.309Z,0.98
2022-08-27T12:35:21.683Z,0.90
2022-08-27T12:38:05.680Z,1.00
2022-08-27T12:40:40.796Z,1.10
2022-08-27T12:43:12.916Z,1.10
2022-08-27T12:45:51.916Z,1.23
2022-08-27T12:48:30.222Z,1.02
2022-08-27T12:51:01.259Z,1.40
2022-08-27T12:53:43.515Z,0.90
2022-08-27T12:56:41.900Z,0.80
2022-08-27T12:59:33.212Z,1.10
2022-08-27T13:02:17.607Z,1.23
2022-08-27T13:04:44.416Z,1.27
2022-08-27T13:07:10.842Z,1.27
2022-08-27T13:09:39.879Z,0.73
2022-08-27T13:12:17.426Z,1.40
2022-08-27T13:14:44.343Z,1.05
2022-08-27T13:17:22.174Z,1.10
2022-08-27T13:20:00.822Z,1.07
2022-08-27T13:22:35.994Z,0.93
2022-08-27T13:25:02.967Z,1.10
2022-08-27T13:27:33.118Z,0.80
2022-08-27T13:30:06.168Z,0.93
2022-08-27T13:32:33.143Z,1.13
2022-08-27T13:35:01.725Z,0.93
2022-08-27T13:37:34.682Z,1.08
2022-08-27T13:40:01.375Z,1.02
2022-08-27T13:42:27.966Z,1.05
2022-08-27T13:45:02.544Z,0.97
2022-08-27T13:47:30.678Z,0.70
2022-08-27T13:50:07.667Z,1.08
2022-08-27T13:52:59.452Z,0.80
2022-08-27T13:55:34.064Z,1.00
2022-08-27T13:58:00.740Z,1.37
2022-08-27T14:00:33.507Z,1.00
2022-08-27T14:03:03.753Z,0.85
2022-08-27T14:05:47.966Z,1.45
2022-08-27T14:08:19.824Z,0.80
2022-08-27T14:11:00.001Z,0.80
2022-08-27T14:13:28.744Z,0.90
2022-08-27T14:15:58.861Z,0.95
2022-08-27T14:18:58.761Z,0.80
2022-08-27T14:21:22.650Z,0.95
2022-08-27T14:23:50.126Z,0.63
2022-08-27T14:26:17.430Z,0.90
2022-08-27T14:29:00.488Z,0.90
2022-08-27T14:31:27.132Z,1.00
2022-08-27T14:33:57.124Z,1.40
2022-08-27T14:36:24.759Z,1.37
2022-08-27T14:38:52.691Z,0.90
2022-08-27T14:41:22.031Z,1.35
2022-08-27T14:43:49.732Z,2.60
2022-08-27T14:46:26.492Z,3.67
2022-08-27T14:49:16.327Z,1.30
2022-08-27T14:51:45.902Z,1.08
2022-08-27T14:54:14.518Z,0.90
2022-08-27T14:56:41.186Z,1.00
2022-08-27T14:59:07.603Z,0.90
2022-08-27T15:01:37.243Z,0.80
2022-08-27T15:04:04.415Z,0.90
2022-08-27T15:06:30.931Z,1.40
2022-08-27T15:08:57.983Z,1.05
2022-08-27T15:11:29.772Z,1.70
2022-08-27T15:14:21.998Z,1.23
2022-08-27T15:16:48.471Z,1.15
2022-08-27T15:19:15.429Z,1.05
2022-08-27T15:21:47.464Z,1.65
2022-08-27T15:24:24.969Z,1.30
2022-08-27T15:26:53.275Z,1.20
2022-08-27T15:29:20.331Z,0.70
2022-08-27T15:31:47.579Z,1.33
2022-08-27T15:34:31.964Z,1.67
2022-08-27T15:36:58.424Z,1.50
2022-08-27T15:39:24.855Z,1.60
2022-08-27T15:42:05.648Z,1.30
2022-08-27T15:44:34.073Z,1.00
2022-08-27T15:47:00.648Z,0.90
2022-08-27T15:49:28.228Z,1.80
2022-08-27T15:51:55.400Z,1.30
2022-08-27T15:54:34.028Z,1.20
2022-08-27T15:57:00.483Z,1.42
2022-08-27T15:59:27.424Z,1.50
2022-08-27T16:01:54.809Z,1.30
2022-08-27T16:04:22.920Z,1.17
2022-08-27T16:06:49.304Z,1.10
2022-08-27T16:09:17.112Z,1.70
2022-08-27T16:11:45.257Z,1.10
2022-08-27T16:14:13.440Z,1.33
2022-08-27T16:16:40.412Z,1.37
2022-08-27T16:19:07.717Z,1.77
2022-08-27T16:21:38.215Z,1.80
2022-08-27T16:24:09.228Z,2.20
2022-08-27T16:26:37.993Z,2.00
2022-08-27T16:29:05.567Z,1.60
2022-08-27T16:31:33.167Z,1.65
2022-08-27T16:34:00.038Z,1.40
2022-08-27T16:36:26.615Z,1.60
2022-08-27T16:38:53.952Z,1.70
2022-08-27T16:41:22.424Z,1.67
2022-08-27T16:43:49.357Z,1.30
2022-08-27T16:46:15.977Z,1.77
2022-08-27T16:49:01.715Z,1.15
2022-08-27T16:51:34.485Z,1.65
2022-08-27T16:54:03.716Z,2.00
2022-08-27T16:56:31.866Z,1.77
2022-08-27T16:59:01.479Z,1.50
2022-08-27T17:01:33.214Z,1.67
2022-08-27T17:04:12.867Z,1.50
2022-08-27T17:06:45.465Z,1.67
2022-08-27T17:09:13.534Z,2.33
2022-08-27T17:11:42.783Z,1.75
2022-08-27T17:14:13.160Z,1.75
2022-08-27T17:16:41.497Z,1.75
2022-08-27T17:19:09.515Z,1.63
2022-08-27T17:21:37.278Z,1.60
2022-08-27T17:24:04.767Z,1.80
2022-08-27T17:26:37.305Z,1.58
2022-08-27T17:29:03.768Z,1.48
2022-08-27T17:31:36.112Z,1.50
2022-08-27T17:34:02.927Z,1.63
2022-08-27T17:36:31.379Z,1.67
2022-08-27T17:39:00.050Z,1.55
2022-08-27T17:41:33.638Z,1.40
2022-08-27T17:44:04.744Z,1.57
2022-08-27T17:46:31.348Z,1.45
2022-08-27T17:48:57.837Z,1.77
2022-08-27T17:51:25.853Z,1.52
2022-08-27T17:54:00.306Z,1.65
2022-08-27T17:56:29.544Z,1.80
2022-08-27T17:58:56.457Z,2.25
2022-08-27T18:01:31.606Z,1.90
2022-08-27T18:04:09.420Z,1.85
2022-08-27T18:06:39.247Z,3.25
2022-08-27T18:09:06.019Z,2.90
2022-08-27T18:11:40.531Z,1.80
2022-08-27T18:14:06.969Z,2.10
2022-08-27T18:16:34.443Z,1.63
2022-08-27T18:19:06.870Z,1.70
2022-08-27T18:21:33.651Z,1.70
2022-08-27T18:24:06.967Z,1.40
2022-08-27T18:26:33.900Z,1.77
2022-08-27T18:29:00.473Z,1.38
2022-08-27T18:31:31.482Z,1.60
2022-08-27T18:34:06.454Z,1.97
2022-08-27T18:36:32.990Z,1.23
2022-08-27T18:39:00.479Z,1.63
2022-08-27T18:41:30.467Z,1.30
2022-08-27T18:44:04.324Z,1.90
2022-08-27T18:46:44.039Z,1.70
2022-08-27T18:49:10.968Z,1.70
2022-08-27T18:51:37.990Z,1.35
2022-08-27T18:54:05.327Z,1.92
2022-08-27T18:56:32.995Z,2.17
2022-08-27T18:58:59.464Z,1.50
2022-08-27T19:01:26.835Z,1.20
2022-08-27T19:03:55.205Z,1.40
2022-08-27T19:06:21.953Z,1.30
2022-08-27T19:08:49.662Z,1.50
2022-08-27T19:11:16.422Z,1.70
2022-08-27T19:13:43.263Z,1.55
2022-08-27T19:16:16.394Z,1.67
2022-08-27T19:18:43.632Z,1.40
2022-08-27T19:21:10.239Z,2.20
2022-08-27T19:23:37.138Z,1.43
2022-08-27T19:26:04.680Z,1.92
2022-08-27T19:28:39.556Z,1.60
2022-08-27T19:31:07.903Z,1.80
2022-08-27T19:33:35.684Z,1.67
2022-08-27T19:36:02.683Z,1.60
2022-08-27T19:38:31.748Z,2.05
2022-08-27T19:40:59.525Z,2.10
2022-08-27T19:43:26.072Z,1.83
2022-08-27T19:45:53.199Z,2.05
2022-08-27T19:48:21.104Z,2.10
2022-08-27T19:50:47.528Z,1.92
2022-08-27T19:53:17.468Z,2.00
2022-08-27T19:55:45.509Z,1.63
2022-08-27T19:58:14.281Z,1.90
2022-08-27T20:00:41.383Z,1.27
2022-08-27T20:03:08.507Z,1.70
2022-08-27T20:05:35.081Z,2.03
2022-08-27T20:08:02.151Z,2.10
2022-08-27T20:10:35.937Z,2.20
2022-08-27T20:13:03.283Z,1.70
2022-08-27T20:15:29.815Z,2.00
2022-08-27T20:17:59.202Z,2.30
2022-08-27T20:20:27.439Z,2.13
2022-08-27T20:22:55.729Z,2.47
2022-08-27T20:25:23.280Z,1.93
2022-08-27T20:27:50.510Z,2.45
2022-08-27T20:30:18.791Z,1.88
2022-08-27T20:32:47.120Z,2.53
2022-08-27T20:35:19.684Z,2.15
2022-08-27T20:37:58.524Z,2.23
2022-08-27T20:40:27.922Z,2.15
2022-08-27T20:43:14.905Z,2.53
2022-08-27T20:45:59.956Z,2.20
2022-08-27T20:48:28.995Z,2.50
2022-08-27T20:50:55.974Z,2.27
2022-08-27T20:53:32.852Z,2.35
2022-08-27T20:56:03.546Z,2.95
2022-08-27T20:58:48.617Z,2.35
2022-08-27T21:01:18.698Z,2.40
2022-08-27T21:03:45.280Z,2.50
2022-08-27T21:06:12.404Z,2.63
2022-08-27T21:08:39.581Z,2.50
2022-08-27T21:11:15.411Z,2.22
2022-08-27T21:13:55.735Z,2.60
2022-08-27T21:16:23.092Z,2.50
2022-08-27T21:18:49.544Z,2.38
2022-08-27T21:21:16.007Z,2.97
2022-08-27T21:23:42.488Z,2.70
2022-08-27T21:26:12.031Z,2.38
2022-08-27T21:28:49.669Z,2.60
2022-08-27T21:31:26.067Z,2.28
2022-08-27T21:33:52.639Z,2.83
2022-08-27T21:36:21.250Z,2.55
2022-08-27T21:39:02.391Z,2.40
2022-08-27T21:41:28.824Z,2.83
2022-08-27T21:43:57.304Z,2.58
2022-08-27T21:46:23.825Z,2.88
2022-08-27T21:48:57.671Z,2.80
2022-08-27T21:51:26.852Z,2.70
2022-08-27T21:54:02.414Z,2.20
2022-08-27T21:56:51.596Z,2.25
2022-08-27T22:00:15.933Z,2.90
2022-08-27T22:02:42.432Z,2.67
2022-08-27T22:05:33.812Z,2.38
2022-08-27T22:08:00.405Z,2.70
2022-08-27T22:10:33.749Z,2.65
2022-08-27T22:13:16.076Z,2.90
2022-08-27T22:15:42.729Z,2.90
2022-08-27T22:18:10.049Z,2.65
2022-08-27T22:20:38.860Z,2.67
2022-08-27T22:23:16.523Z,2.50
2022-08-27T22:25:43.845Z,3.10
2022-08-27T22:28:12.260Z,2.80
2022-08-27T22:30:44.764Z,2.80
2022-08-27T22:33:12.764Z,2.77
2022-08-27T22:35:39.596Z,2.50
2022-08-27T22:38:07.041Z,2.80
2022-08-27T22:40:34.134Z,2.17
2022-08-27T22:43:01.424Z,2.35
2022-08-27T22:45:45.311Z,2.43
2022-08-27T22:48:14.041Z,2.80
2022-08-27T22:50:53.745Z,2.80
2022-08-27T22:53:37.087Z,2.55
2022-08-27T22:56:08.393Z,3.10
2022-08-27T22:58:34.818Z,2.70
2022-08-27T23:01:01.755Z,2.70
2022-08-27T23:03:28.676Z,2.30
2022-08-27T23:05:55.388Z,2.85
2022-08-27T23:08:23.973Z,3.13
2022-08-27T23:10:53.069Z,2.50
2022-08-27T23:13:23.355Z,2.70
2022-08-27T23:16:17.051Z,3.10
2022-08-27T23:18:43.780Z,3.17
2022-08-27T23:21:11.181Z,3.20
2022-08-27T23:23:49.962Z,2.50
2022-08-27T23:26:35.065Z,2.60
2022-08-27T23:29:05.496Z,3.00
2022-08-27T23:31:31.960Z,2.42
2022-08-27T23:33:58.560Z,2.90
2022-08-27T23:36:25.245Z,3.20
2022-08-27T23:38:51.929Z,3.00
2022-08-27T23:41:18.441Z,3.08
2022-08-27T23:43:46.989Z,3.05
2022-08-27T23:46:17.956Z,2.70
2022-08-27T23:48:56.697Z,2.43
2022-08-27T23:51:23.225Z,2.50
2022-08-27T23:53:59.889Z,2.80
2022-08-27T23:56:28.069Z,2.63
2022-08-27T23:58:56.772Z,2.88
